Time;durP1;ratioP1;P1;durP2;ratioP2;P2;SDS_P1;SDS_P2;PMS_P1;PMS_P2;Temp;Humidity;BMP_temperature;BMP_pressure;BME280_temperature;BME280_humidity;BME280_pressure;Samples;Min_cycle;Max_cycle;Signal;HPM_P1;HPM_P2
2023/04/20 00:00:16;;;;;;;23.97;18.43;;;;;;;8.83;88.14;93013.69;515855;28;872;-55
2023/04/20 00:00:31;;;;;;;23.92;18.83;;;;;;;8.84;88.23;93023.41;515868;28;797;-55
2023/04/20 00:00:47;;;;;;;22.03;17.70;;;;;;;8.85;88.34;93018.63;515877;28;888;-55
2023/04/20 00:01:03;;;;;;;22.40;16.90;;;;;;;8.86;88.44;93014.59;515861;28;1123;-55
2023/04/20 00:01:19;;;;;;;22.73;16.77;;;;;;;8.85;88.26;93018.63;515862;28;919;-55
2023/04/20 00:01:35;;;;;;;23.27;17.55;;;;;;;8.85;88.36;93024.13;515889;28;891;-55
2023/04/20 00:01:50;;;;;;;24.20;17.70;;;;;;;8.84;88.53;93025.41;515795;28;906;-56
2023/04/20 00:02:06;;;;;;;23.87;17.83;;;;;;;8.85;88.47;93021.38;515875;28;841;-56
2023/04/20 00:02:21;;;;;;;24.40;18.17;;;;;;;8.87;88.85;93016.06;515822;28;911;-55
2023/04/20 00:02:37;;;;;;;25.40;17.90;;;;;;;8.88;88.72;93018.25;515668;28;847;-54
2023/04/20 00:02:53;;;;;;;23.40;17.75;;;;;;;8.88;88.43;93023.06;515617;28;895;-56
2023/04/20 00:03:08;;;;;;;21.83;17.10;;;;;;;8.81;88.34;93015.50;515665;28;845;-55
2023/04/20 00:03:25;;;;;;;21.60;16.93;;;;;;;8.73;88.47;93023.75;515865;28;837;-56
2023/04/20 00:03:40;;;;;;;22.50;17.90;;;;;;;8.68;88.46;93024.66;515809;28;864;-55
2023/04/20 00:03:56;;;;;;;24.07;18.63;;;;;;;8.69;88.68;93020.63;515793;28;819;-55
2023/04/20 00:04:12;;;;;;;24.35;18.73;;;;;;;8.68;88.48;93023.91;515836;28;820;-56
2023/04/20 00:04:28;;;;;;;24.23;17.65;;;;;;;8.71;88.58;93020.06;515748;28;2395;-54
2023/04/20 00:04:44;;;;;;;22.60;17.08;;;;;;;8.74;88.79;93016.97;515832;28;1017;-56
2023/04/20 00:04:59;;;;;;;20.52;16.55;;;;;;;8.78;88.63;93014.59;515803;28;931;-55
2023/04/20 00:05:15;;;;;;;21.53;16.23;;;;;;;8.82;88.49;93020.47;515885;28;826;-56
2023/04/20 00:05:30;;;;;;;24.45;16.48;;;;;;;8.84;88.36;93017.91;515829;28;921;-56
2023/04/20 00:05:48;;;;;;;24.50;16.80;;;;;;;8.86;88.14;93014.59;515809;28;858;-55
2023/04/20 00:06:04;;;;;;;21.70;16.83;;;;;;;8.88;87.90;93020.31;515760;28;920;-56
2023/04/20 00:06:20;;;;;;;21.88;16.05;;;;;;;8.87;87.85;93013.31;515969;28;886;-55
2023/04/20 00:06:36;;;;;;;19.67;15.23;;;;;;;8.89;87.91;93019.00;515816;28;931;-54
2023/04/20 00:06:52;;;;;;;19.47;15.40;;;;;;;8.92;87.70;93018.63;515819;28;904;-55
2023/04/20 00:07:07;;;;;;;19.70;15.00;;;;;;;8.95;87.77;93011.31;515861;28;902;-55
2023/04/20 00:07:23;;;;;;;20.50;15.30;;;;;;;8.97;87.44;93019.75;515893;28;816;-55
2023/04/20 00:07:40;;;;;;;21.90;15.63;;;;;;;8.89;87.36;92996.97;515904;28;913;-56
2023/04/20 00:07:55;;;;;;;21.40;15.55;;;;;;;8.99;87.01;93015.16;515816;28;1084;-56
2023/04/20 00:08:11;;;;;;;20.37;15.40;;;;;;;8.97;87.07;93006.72;515846;28;816;-56
2023/04/20 00:08:27;;;;;;;20.73;15.52;;;;;;;8.93;86.83;93013.88;515855;28;880;-56
2023/04/20 00:08:42;;;;;;;22.50;15.82;;;;;;;8.87;86.82;93003.03;515840;28;912;-54
2023/04/20 00:08:58;;;;;;;22.77;16.33;;;;;;;8.83;86.99;93007.44;515788;28;876;-55
2023/04/20 00:09:14;;;;;;;21.15;16.23;;;;;;;8.81;87.02;93010.75;515884;28;837;-55
2023/04/20 00:09:30;;;;;;;20.55;16.05;;;;;;;8.79;87.05;93013.28;515843;28;877;-54
2023/04/20 00:09:46;;;;;;;20.23;16.45;;;;;;;8.78;86.91;93011.84;515803;28;983;-54
2023/04/20 00:10:02;;;;;;;21.17;17.30;;;;;;;8.78;87.38;93009.09;515660;28;1129;-55
2023/04/20 00:10:17;;;;;;;23.23;17.95;;;;;;;8.79;87.13;93010.53;515911;28;844;-56
2023/04/20 00:10:33;;;;;;;22.37;17.57;;;;;;;8.79;87.47;93010.53;515830;28;1049;-55
2023/04/20 00:10:48;;;;;;;21.73;16.98;;;;;;;8.79;87.32;93013.28;515852;28;1069;-56
2023/04/20 00:11:04;;;;;;;22.03;17.50;;;;;;;8.79;87.17;93007.78;515888;28;837;-55
2023/04/20 00:11:19;;;;;;;21.95;17.63;;;;;;;8.80;87.16;93012.03;515676;28;1198;-54
2023/04/20 00:11:35;;;;;;;21.63;17.20;;;;;;;8.81;87.54;93007.25;515788;28;888;-55
2023/04/20 00:11:50;;;;;;;22.70;17.13;;;;;;;8.81;87.26;93010.75;515841;28;848;-55
2023/04/20 00:12:06;;;;;;;23.17;16.70;;;;;;;8.82;87.45;93011.47;515677;28;1906;-54
2023/04/20 00:12:21;;;;;;;21.73;16.37;;;;;;;8.83;87.36;93005.44;515851;28;1029;-54
2023/04/20 00:12:36;;;;;;;21.95;16.38;;;;;;;8.85;87.30;93013.13;515841;28;1530;-55
2023/04/20 00:12:52;;;;;;;25.50;16.90;;;;;;;8.81;87.44;93007.25;515736;28;889;-55
2023/04/20 00:13:07;;;;;;;25.40;17.47;;;;;;;8.72;87.16;93016.03;515848;28;853;-54
2023/04/20 00:13:22;;;;;;;22.90;17.45;;;;;;;8.67;87.47;93009.41;515837;28;852;-55
2023/04/20 00:13:38;;;;;;;23.77;17.67;;;;;;;8.64;87.88;93009.78;515804;28;829;-55
2023/04/20 00:13:53;;;;;;;24.23;17.87;;;;;;;8.65;88.09;93012.00;515784;28;924;-55
2023/04/20 00:14:08;;;;;;;24.02;17.85;;;;;;;8.67;88.29;93017.69;515910;28;766;-55
2023/04/20 00:14:24;;;;;;;23.97;17.40;;;;;;;8.65;88.14;93014.75;515860;28;828;-56
2023/04/20 00:14:39;;;;;;;25.95;17.60;;;;;;;8.64;88.71;93010.50;515878;28;856;-54
2023/04/20 00:14:55;;;;;;;26.70;17.80;;;;;;;8.65;88.94;93017.50;515843;28;781;-54
2023/04/20 00:15:10;;;;;;;27.40;18.20;;;;;;;8.65;88.79;93011.25;515668;28;1674;-55
2023/04/20 00:15:26;;;;;;;26.17;18.63;;;;;;;8.63;88.87;93000.06;515897;28;925;-55
2023/04/20 00:15:41;;;;;;;25.47;18.07;;;;;;;8.69;88.99;93009.59;515839;28;876;-55
2023/04/20 00:15:56;;;;;;;24.77;17.73;;;;;;;8.72;88.98;93007.78;516272;28;1154;-53
2023/04/20 00:16:12;;;;;;;23.87;17.70;;;;;;;8.74;88.92;93010.72;517898;28;825;-54
2023/04/20 00:16:27;;;;;;;23.83;17.73;;;;;;;8.74;88.87;93011.47;517847;28;880;-56
2023/04/20 00:16:42;;;;;;;23.95;17.92;;;;;;;8.76;88.86;93008.16;517874;28;766;-56
2023/04/20 00:16:58;;;;;;;24.77;18.20;;;;;;;8.77;89.03;93015.84;517910;28;781;-55
2023/04/20 00:17:13;;;;;;;25.03;18.17;;;;;;;8.77;88.81;93013.09;517826;28;1079;-53
2023/04/20 00:17:28;;;;;;;24.00;17.77;;;;;;;8.77;88.91;93009.63;517807;28;932;-55
2023/04/20 00:17:44;;;;;;;22.90;17.03;;;;;;;8.69;88.55;93004.09;517840;28;903;-53
2023/04/20 00:18:00;;;;;;;22.45;16.08;;;;;;;8.71;88.85;93009.06;517835;28;842;-54
2023/04/20 00:18:15;;;;;;;20.13;15.73;;;;;;;8.74;88.80;93007.97;517921;28;785;-56
2023/04/20 00:18:30;;;;;;;21.38;16.75;;;;;;;8.76;88.48;93008.16;517911;28;777;-56
2023/04/20 00:18:46;;;;;;;22.87;17.13;;;;;;;8.78;88.25;93009.09;517856;28;1141;-56
2023/04/20 00:19:02;;;;;;;22.70;17.30;;;;;;;8.80;88.10;93006.50;517847;28;913;-58
2023/04/20 00:19:17;;;;;;;24.23;18.33;;;;;;;8.79;88.13;93007.78;517907;28;769;-55
2023/04/20 00:19:32;;;;;;;23.98;19.15;;;;;;;8.81;87.79;93010.00;517840;28;805;-55
2023/04/20 00:19:48;;;;;;;24.03;19.07;;;;;;;8.81;87.81;93010.75;517796;28;871;-55
2023/04/20 00:20:04;;;;;;;25.73;18.83;;;;;;;8.61;87.65;92980.59;517722;28;907;-55
2023/04/20 00:20:19;;;;;;;24.90;18.50;;;;;;;8.75;87.70;93007.41;517863;28;830;-55
2023/04/20 00:20:35;;;;;;;23.33;18.13;;;;;;;8.75;87.84;93010.16;517827;28;931;-54
2023/04/20 00:20:51;;;;;;;24.02;18.15;;;;;;;8.76;87.83;93010.91;517795;28;882;-53
2023/04/20 00:21:06;;;;;;;24.93;18.13;;;;;;;8.76;87.90;93006.13;517837;28;912;-54
2023/04/20 00:21:23;;;;;;;23.45;17.55;;;;;;;8.77;87.78;93004.13;517839;28;809;-55
2023/04/20 00:21:38;;;;;;;22.30;17.35;;;;;;;8.79;87.91;93007.06;517890;28;817;-56
2023/04/20 00:21:53;;;;;;;24.27;17.93;;;;;;;8.77;87.89;93002.09;517766;28;886;-55
2023/04/20 00:22:09;;;;;;;23.48;17.83;;;;;;;8.77;87.69;93004.13;517756;28;915;-55
2023/04/20 00:22:25;;;;;;;20.77;17.53;;;;;;;8.77;87.45;93004.13;517896;28;833;-55
2023/04/20 00:22:40;;;;;;;22.00;17.60;;;;;;;8.78;87.77;93005.59;517857;28;865;-54
2023/04/20 00:22:55;;;;;;;23.92;17.70;;;;;;;8.77;87.50;92996.59;517847;28;844;-54
2023/04/20 00:23:11;;;;;;;22.57;17.27;;;;;;;8.75;87.40;93001.91;517844;28;880;-54
2023/04/20 00:23:26;;;;;;;21.93;17.20;;;;;;;8.77;87.40;93001.38;517830;28;868;-53
2023/04/20 00:23:41;;;;;;;22.63;18.13;;;;;;;8.78;87.70;93003.56;517899;28;797;-54
2023/04/20 00:23:57;;;;;;;24.77;18.47;;;;;;;8.79;87.32;93010.53;517768;28;777;-55
2023/04/20 00:24:12;;;;;;;27.07;18.83;;;;;;;8.80;87.51;93003.75;517871;28;813;-55
2023/04/20 00:24:28;;;;;;;25.85;19.30;;;;;;;8.79;87.52;93002.28;517860;28;852;-56
2023/04/20 00:24:43;;;;;;;24.53;19.23;;;;;;;8.81;87.82;93005.25;517801;28;926;-56
2023/04/20 00:24:58;;;;;;;25.23;18.70;;;;;;;8.84;87.76;93008.91;517840;28;860;-55
2023/04/20 00:25:14;;;;;;;27.42;19.23;;;;;;;8.83;87.83;93001.94;517783;28;872;-56
2023/04/20 00:25:30;;;;;;;25.23;19.27;;;;;;;8.83;88.10;93008.19;517761;28;937;-55
2023/04/20 00:25:48;;;;;;;24.92;19.48;;;;;;;8.83;87.93;93001.94;517842;28;936;-54
2023/04/20 00:26:04;;;;;;;25.08;19.65;;;;;;;8.81;87.83;93002.50;517758;28;868;-55
2023/04/20 00:26:20;;;;;;;26.05;20.23;;;;;;;8.81;87.93;93004.50;517842;28;789;-56
2023/04/20 00:26:35;;;;;;;28.02;21.08;;;;;;;8.77;88.06;93010.34;517887;28;876;-55
2023/04/20 00:26:50;;;;;;;28.73;20.38;;;;;;;8.76;88.10;92997.88;517783;28;793;-55
2023/04/20 00:27:06;;;;;;;27.03;19.50;;;;;;;8.77;88.21;93002.09;517797;28;930;-56
2023/04/20 00:27:21;;;;;;;26.63;19.73;;;;;;;8.77;88.63;92996.59;517828;28;809;-54
2023/04/20 00:27:36;;;;;;;29.38;20.08;;;;;;;8.80;88.43;92997.50;517799;28;927;-55
2023/04/20 00:27:52;;;;;;;30.37;20.20;;;;;;;8.80;88.63;92992.00;517774;28;907;-55
2023/04/20 00:28:07;;;;;;;30.80;21.33;;;;;;;8.82;88.43;93000.44;517786;28;987;-56
2023/04/20 00:28:22;;;;;;;32.00;21.50;;;;;;;8.49;88.25;92951.97;517884;28;789;-56
2023/04/20 00:28:38;;;;;;;29.73;21.40;;;;;;;8.83;88.56;92999.94;517667;28;757;-56
2023/04/20 00:28:53;;;;;;;28.60;21.40;;;;;;;8.82;88.23;92998.44;517726;28;856;-55
2023/04/20 00:29:09;;;;;;;29.40;21.33;;;;;;;8.83;88.45;92999.19;517724;28;765;-56
2023/04/20 00:29:24;;;;;;;30.70;21.60;;;;;;;8.84;88.09;93000.63;517697;28;935;-56
2023/04/20 00:29:39;;;;;;;29.83;21.80;;;;;;;8.86;87.99;92996.06;517708;28;839;-55
2023/04/20 00:29:55;;;;;;;29.05;21.15;;;;;;;8.86;88.23;92990.56;517564;28;898;-56
2023/04/20 00:30:11;;;;;;;28.10;20.40;;;;;;;8.87;88.09;93003.03;517605;28;814;-55
2023/04/20 00:30:26;;;;;;;26.58;20.20;;;;;;;8.86;88.08;92992.56;517711;28;918;-54
2023/04/20 00:30:42;;;;;;;27.52;20.20;;;;;;;8.81;88.19;92999.75;517454;28;1217;-55
2023/04/20 00:30:57;;;;;;;27.43;19.90;;;;;;;8.78;88.36;92995.31;515784;28;877;-54
2023/04/20 00:31:12;;;;;;;26.63;19.63;;;;;;;8.79;88.32;92999.53;515808;28;781;-55
2023/04/20 00:31:30;;;;;;;26.75;19.70;;;;;;;8.77;88.19;92993.84;515816;28;848;-55
2023/04/20 00:31:45;;;;;;;27.42;20.27;;;;;;;8.78;88.15;93000.81;515779;28;1623;-56
2023/04/20 00:32:00;;;;;;;28.67;21.27;;;;;;;8.78;88.15;92997.31;515746;28;848;-55
2023/04/20 00:32:16;;;;;;;28.48;21.67;;;;;;;8.79;88.21;92996.78;515694;28;1975;-55
2023/04/20 00:32:31;;;;;;;27.30;21.27;;;;;;;8.80;88.13;92998.25;515809;28;1646;-56
2023/04/20 00:32:46;;;;;;;27.60;20.77;;;;;;;8.80;88.00;93001.00;515838;28;830;-56
2023/04/20 00:33:02;;;;;;;27.30;20.45;;;;;;;8.80;87.91;92998.25;515792;28;896;-55
2023/04/20 00:33:17;;;;;;;25.67;19.83;;;;;;;8.81;88.09;92994.22;515774;28;1737;-55
2023/04/20 00:33:32;;;;;;;25.73;19.87;;;;;;;8.84;87.70;92993.13;515844;28;771;-55
2023/04/20 00:33:48;;;;;;;25.63;19.50;;;;;;;8.86;87.60;92989.81;515789;28;878;-55
2023/04/20 00:34:03;;;;;;;26.27;19.00;;;;;;;8.86;87.59;92998.81;515711;28;840;-55
2023/04/20 00:34:19;;;;;;;25.73;19.20;;;;;;;8.87;87.45;92994.78;515830;28;860;-55
2023/04/20 00:34:35;;;;;;;25.30;19.30;;;;;;;8.87;87.17;92997.53;515792;28;872;-56
2023/04/20 00:34:50;;;;;;;26.67;20.07;;;;;;;8.86;87.09;92996.06;515806;28;852;-55
2023/04/20 00:35:06;;;;;;;28.07;21.13;;;;;;;8.84;87.23;92995.13;515808;28;888;-55
2023/04/20 00:35:21;;;;;;;31.00;22.75;;;;;;;8.81;87.35;92990.75;515731;28;797;-55
2023/04/20 00:35:37;;;;;;;31.95;22.98;;;;;;;8.78;87.45;92995.31;515843;28;868;-54
2023/04/20 00:35:52;;;;;;;33.20;22.47;;;;;;;8.78;87.43;92991.81;515687;28;1364;-54
2023/04/20 00:36:08;;;;;;;33.20;22.30;;;;;;;8.76;87.59;92991.63;515829;28;844;-53
2023/04/20 00:36:23;;;;;;;30.00;21.37;;;;;;;8.74;87.83;92985.94;515857;28;833;-55
2023/04/20 00:36:39;;;;;;;30.83;21.35;;;;;;;8.77;88.04;92987.63;515859;28;789;-55
2023/04/20 00:36:54;;;;;;;31.00;21.40;;;;;;;8.78;87.78;92987.06;515763;28;1075;-55
2023/04/20 00:37:10;;;;;;;29.55;21.02;;;;;;;8.80;87.72;92986.50;515836;28;809;-55
2023/04/20 00:37:26;;;;;;;29.03;20.57;;;;;;;8.82;87.70;92981.94;515803;28;847;-55
2023/04/20 00:37:41;;;;;;;26.92;20.65;;;;;;;8.85;87.36;92985.59;515814;28;842;-56
2023/04/20 00:37:56;;;;;;;27.37;21.17;;;;;;;8.87;87.23;92988.53;515665;28;880;-55
2023/04/20 00:38:12;;;;;;;27.77;21.30;;;;;;;8.88;87.47;92987.97;515818;28;870;-56
2023/04/20 00:38:27;;;;;;;28.43;21.53;;;;;;;8.90;87.40;92984.69;515835;28;868;-55
2023/04/20 00:38:42;;;;;;;30.03;21.20;;;;;;;8.91;87.29;92981.38;515766;28;842;-55
2023/04/20 00:38:58;;;;;;;30.38;20.52;;;;;;;8.90;86.79;92985.41;515797;28;922;-54
2023/04/20 00:39:14;;;;;;;29.70;20.43;;;;;;;8.90;86.66;92985.41;515794;28;759;-54
2023/04/20 00:39:30;;;;;;;32.13;21.73;;;;;;;8.91;86.98;92988.91;515824;28;824;-55
2023/04/20 00:39:45;;;;;;;32.27;22.03;;;;;;;8.92;86.79;92990.38;515862;28;828;-56
2023/04/20 00:40:01;;;;;;;32.37;22.07;;;;;;;8.92;86.95;92987.63;515720;28;1397;-54
2023/04/20 00:40:16;;;;;;;35.38;22.80;;;;;;;8.93;86.66;92986.34;515853;28;1094;-56
2023/04/20 00:40:32;;;;;;;36.57;23.57;;;;;;;8.92;86.79;92988.34;515700;28;850;-54
2023/04/20 00:40:51;;;;;;;36.20;24.25;;;;;;;8.90;86.87;92992.97;515729;28;889;-56
2023/04/20 00:41:07;;;;;;;31.63;23.23;;;;;;;8.86;87.10;92985.03;515723;28;1323;-55
2023/04/20 00:41:22;;;;;;;31.17;22.77;;;;;;;8.86;87.15;92987.06;515750;28;1270;-52
2023/04/20 00:41:38;;;;;;;42.60;29.47;;;;;;;8.85;86.89;92982.84;515846;28;781;-55
2023/04/20 00:41:53;;;;;;;56.45;37.63;;;;;;;8.84;87.16;92982.09;515730;28;802;-56
2023/04/20 00:42:09;;;;;;;62.75;40.50;;;;;;;8.79;86.99;92983.00;515749;28;848;-55
2023/04/20 00:42:24;;;;;;;69.80;41.97;;;;;;;8.84;87.22;92982.09;515859;28;897;-55
2023/04/20 00:42:41;;;;;;;75.03;45.03;;;;;;;8.84;87.33;92982.09;515802;28;840;-53
2023/04/20 00:42:56;;;;;;;64.88;43.00;;;;;;;8.85;87.28;92983.59;515772;28;873;-55
2023/04/20 00:43:12;;;;;;;60.43;40.37;;;;;;;8.88;87.06;92985.22;515826;28;785;-54
2023/04/20 00:43:28;;;;;;;62.40;41.30;;;;;;;8.89;87.01;92988.72;515766;28;842;-55
2023/04/20 00:43:53;;;;;;;59.27;38.13;;;;;;;8.92;87.06;92987.63;515745;28;951;-56
2023/04/20 00:44:10;;;;;;;64.80;41.25;;;;;;;8.94;87.01;92987.81;515735;28;904;-56
2023/04/20 00:44:25;;;;;;;62.83;40.20;;;;;;;8.95;86.77;92987.25;515842;28;932;-54
2023/04/20 00:44:41;;;;;;;66.23;40.87;;;;;;;8.98;86.96;92986.19;515779;28;892;-56
2023/04/20 00:44:56;;;;;;;64.93;40.78;;;;;;;9.00;86.83;92985.63;515758;28;888;-56
2023/04/20 00:45:11;;;;;;;62.00;40.87;;;;;;;9.01;86.47;92985.06;515825;28;832;-54
2023/04/20 00:45:27;;;;;;;68.20;43.13;;;;;;;9.04;86.70;92988.75;515717;28;863;-55
2023/04/20 00:45:42;;;;;;;66.45;42.05;;;;;;;9.05;86.15;92984.72;515763;28;826;-54
2023/04/20 00:45:57;;;;;;;59.70;38.87;;;;;;;9.05;86.33;92990.22;515757;28;847;-55
2023/04/20 00:46:13;;;;;;;59.13;37.63;;;;;;;9.00;86.08;92989.13;515630;28;1366;-55
2023/04/20 00:46:28;;;;;;;57.67;38.03;;;;;;;9.01;85.80;92990.56;515832;28;817;-56
2023/04/20 00:46:43;;;;;;;53.60;37.07;;;;;;;9.01;86.07;92990.56;515749;28;916;-54
2023/04/20 00:46:59;;;;;;;52.13;35.30;;;;;;;9.02;86.12;92994.06;515776;28;821;-55
2023/04/20 00:47:15;;;;;;;49.97;33.73;;;;;;;9.02;86.02;92992.06;515743;28;825;-56
2023/04/20 00:47:30;;;;;;;49.65;32.83;;;;;;;9.03;86.11;92990.75;515564;28;867;-55
2023/04/20 00:47:46;;;;;;;50.87;32.93;;;;;;;9.02;85.80;92994.06;515597;28;904;-56
2023/04/20 00:48:01;;;;;;;48.03;32.20;;;;;;;9.03;86.08;92987.28;515421;28;1179;-55
2023/04/20 00:48:17;;;;;;;45.20;29.93;;;;;;;9.02;85.90;92988.56;515586;28;1008;-56
2023/04/20 00:48:33;;;;;;;45.30;29.95;;;;;;;9.02;86.22;92986.53;515619;28;884;-54
2023/04/20 00:48:50;;;;;;;42.85;28.65;;;;;;;8.99;86.14;92987.63;515534;28;997;-56
2023/04/20 00:49:06;;;;;;;37.97;26.10;;;;;;;8.98;86.02;92993.69;515646;28;1083;-56
2023/04/20 00:49:25;;;;;;;36.90;25.98;;;;;;;8.97;85.90;92989.47;514365;28;880;-56
2023/04/20 00:49:40;;;;;;;34.78;25.25;;;;;;;8.97;85.94;92987.44;515635;28;887;-55
2023/04/20 00:49:56;;;;;;;35.40;24.83;;;;;;;8.95;85.88;92989.28;515493;28;893;-54
2023/04/20 00:50:11;;;;;;;41.33;27.35;;;;;;;8.88;85.90;92987.28;515639;28;861;-54
2023/04/20 00:50:27;;;;;;;45.23;30.70;;;;;;;8.81;86.10;92988.72;515592;28;853;-55
2023/04/20 00:50:42;;;;;;;44.65;31.10;;;;;;;8.75;86.02;92982.63;515702;28;825;-55
2023/04/20 00:50:58;;;;;;;43.53;30.10;;;;;;;8.74;86.46;92985.94;515551;28;852;-55
2023/04/20 00:51:13;;;;;;;41.42;28.55;;;;;;;8.77;86.68;92991.09;515713;28;833;-56
2023/04/20 00:51:30;;;;;;;39.13;26.67;;;;;;;8.78;86.58;92986.31;515806;28;906;-55
2023/04/20 00:51:46;;;;;;;37.53;25.63;;;;;;;8.82;86.60;92989.44;515819;28;848;-55
2023/04/20 00:52:01;;;;;;;36.92;25.10;;;;;;;8.82;86.50;92989.44;515623;28;905;-55
2023/04/20 00:52:16;;;;;;;36.70;25.43;;;;;;;8.84;86.39;92989.63;515759;28;2264;-56
2023/04/20 00:52:32;;;;;;;37.47;26.33;;;;;;;8.76;86.45;92977.88;515742;28;892;-55
2023/04/20 00:52:47;;;;;;;38.60;26.50;;;;;;;8.89;86.44;92989.47;515693;28;813;-56
2023/04/20 00:53:03;;;;;;;38.50;26.53;;;;;;;8.91;86.48;92986.91;515585;28;892;-55
2023/04/20 00:53:18;;;;;;;38.10;25.83;;;;;;;8.93;86.28;92989.09;513681;28;842;-55
2023/04/20 00:53:34;;;;;;;33.37;23.40;;;;;;;8.96;85.93;92990.75;513602;28;849;-55
2023/04/20 00:53:49;;;;;;;31.63;23.20;;;;;;;8.98;86.10;92988.19;513646;28;814;-56
2023/04/20 00:54:05;;;;;;;32.43;23.47;;;;;;;8.98;85.83;92988.19;513590;28;823;-54
2023/04/20 00:54:20;;;;;;;33.08;22.90;;;;;;;8.84;85.76;92965.59;511674;29;782;-55
2023/04/20 00:54:36;;;;;;;34.23;24.27;;;;;;;8.98;85.52;92986.19;511913;28;940;-55
2023/04/20 00:54:51;;;;;;;36.53;25.48;;;;;;;8.85;85.46;92972.59;511646;29;818;-55
2023/04/20 00:55:07;;;;;;;36.40;25.17;;;;;;;8.86;85.43;92993.31;512998;28;1275;-55
2023/04/20 00:55:23;;;;;;;36.53;25.45;;;;;;;8.79;86.09;92988.50;515596;28;939;-55
2023/04/20 00:55:38;;;;;;;35.67;26.27;;;;;;;8.73;86.37;92987.22;515543;28;864;-55
2023/04/20 00:55:54;;;;;;;35.58;25.55;;;;;;;8.68;86.35;92988.88;515557;28;916;-55
2023/04/20 00:56:12;;;;;;;36.58;25.88;;;;;;;8.68;86.74;92985.41;515517;28;1541;-56
2023/04/20 00:56:27;;;;;;;36.40;26.10;;;;;;;8.52;87.08;92968.13;515625;28;866;-54
2023/04/20 00:56:43;;;;;;;33.55;23.98;;;;;;;8.62;87.09;92985.56;514317;28;825;-56
2023/04/20 00:56:58;;;;;;;33.00;23.00;;;;;;;8.60;86.98;92987.41;515614;28;848;-54
2023/04/20 00:57:14;;;;;;;31.70;22.60;;;;;;;8.49;87.17;92974.69;515608;28;1109;-54
2023/04/20 00:57:30;;;;;;;29.50;21.42;;;;;;;8.62;87.37;92985.56;513325;28;1104;-55
2023/04/20 00:57:45;;;;;;;28.07;20.27;;;;;;;8.65;87.42;92992.72;509646;29;1667;-55
2023/04/20 00:58:00;;;;;;;28.67;20.20;;;;;;;8.67;87.33;92986.66;510310;29;782;-55
2023/04/20 00:58:16;;;;;;;30.07;21.30;;;;;;;8.67;87.45;92997.66;511704;29;802;-55
2023/04/20 00:58:32;;;;;;;27.80;21.27;;;;;;;8.61;87.41;92986.84;511970;28;814;-53
2023/04/20 00:58:48;;;;;;;28.58;21.52;;;;;;;8.50;87.88;92989.94;513627;28;917;-55
2023/04/20 00:59:03;;;;;;;29.73;21.80;;;;;;;8.39;87.97;92987.50;513605;28;857;-55
2023/04/20 00:59:20;;;;;;;31.27;21.38;;;;;;;8.31;88.08;92984.75;512067;28;784;-56
2023/04/20 00:59:35;;;;;;;31.13;20.80;;;;;;;8.26;88.68;92987.66;514230;28;1042;-54
2023/04/20 00:59:51;;;;;;;28.30;20.23;;;;;;;8.26;88.91;92977.41;515550;28;833;-53
2023/04/20 01:00:07;;;;;;;28.23;20.33;;;;;;;8.30;89.07;92980.53;515617;28;919;-54
2023/04/20 01:00:23;;;;;;;26.02;20.05;;;;;;;8.30;89.09;92983.28;515589;28;883;-54
2023/04/20 01:00:39;;;;;;;26.10;19.70;;;;;;;8.32;89.07;92977.97;515535;28;920;-55
2023/04/20 01:00:55;;;;;;;26.60;19.85;;;;;;;8.34;89.25;92980.16;515661;28;924;-56
2023/04/20 01:01:11;;;;;;;25.33;20.63;;;;;;;8.26;89.10;92960.91;515654;28;1226;-56
2023/04/20 01:01:26;;;;;;;26.25;20.63;;;;;;;8.47;88.89;92982.06;515750;28;987;-56
2023/04/20 01:01:42;;;;;;;28.80;20.63;;;;;;;8.48;88.86;92984.25;515790;28;793;-55
2023/04/20 01:01:58;;;;;;;30.65;21.52;;;;;;;8.52;88.57;92994.88;515683;28;817;-55
2023/04/20 01:02:13;;;;;;;30.67;21.57;;;;;;;8.50;88.50;92987.19;515828;28;838;-56
2023/04/20 01:02:28;;;;;;;30.98;21.02;;;;;;;8.51;88.54;92988.63;515823;28;814;-55
2023/04/20 01:02:44;;;;;;;30.33;20.80;;;;;;;8.53;88.37;92983.34;515816;28;836;-53
2023/04/20 01:02:59;;;;;;;30.67;20.47;;;;;;;8.55;88.62;92985.53;515703;28;821;-55
2023/04/20 01:03:14;;;;;;;29.75;20.33;;;;;;;8.56;88.40;92987.75;515823;28;877;-53
2023/04/20 01:03:30;;;;;;;32.47;21.37;;;;;;;8.58;88.53;92985.19;515647;28;774;-55
2023/04/20 01:03:45;;;;;;;34.17;22.02;;;;;;;8.49;88.32;92973.97;513661;28;837;-53
2023/04/20 01:04:01;;;;;;;29.83;21.83;;;;;;;8.62;88.45;92980.03;513507;28;787;-55
2023/04/20 01:04:16;;;;;;;30.40;21.90;;;;;;;8.63;88.28;92981.53;513676;28;789;-55
2023/04/20 01:04:34;;;;;;;32.63;21.88;;;;;;;8.66;88.47;92987.97;511572;29;862;-54
2023/04/20 01:04:50;;;;;;;30.33;21.20;;;;;;;8.65;88.45;92986.47;511539;28;1163;-55
2023/04/20 01:05:06;;;;;;;29.90;21.43;;;;;;;8.63;88.14;92984.28;511632;29;980;-55
2023/04/20 01:05:21;;;;;;;29.27;21.80;;;;;;;8.61;88.37;92975.09;512282;28;916;-55
2023/04/20 01:05:37;;;;;;;27.40;21.40;;;;;;;8.53;88.11;92972.34;514333;28;861;-56
2023/04/20 01:05:52;;;;;;;31.57;21.47;;;;;;;8.46;88.33;92981.31;515557;28;956;-54
2023/04/20 01:06:08;;;;;;;34.63;21.75;;;;;;;8.43;88.64;92981.66;515613;28;836;-54
2023/04/20 01:06:23;;;;;;;31.53;21.87;;;;;;;8.39;88.90;92982.75;514338;28;825;-55
2023/04/20 01:06:39;;;;;;;28.25;20.90;;;;;;;8.39;89.17;92980.00;515610;28;1307;-56
2023/04/20 01:06:54;;;;;;;29.37;21.00;;;;;;;8.44;89.02;92985.88;515611;28;1201;-55
2023/04/20 01:07:09;;;;;;;31.50;21.60;;;;;;;8.46;89.15;92978.56;515662;28;884;-54
2023/04/20 01:07:25;;;;;;;29.60;21.03;;;;;;;8.50;89.22;92983.69;515577;28;861;-53
2023/04/20 01:07:40;;;;;;;27.73;20.90;;;;;;;8.53;88.98;92985.38;515598;28;1581;-56
2023/04/20 01:07:56;;;;;;;29.48;21.55;;;;;;;8.54;88.69;92984.06;515552;28;823;-55
2023/04/20 01:08:11;;;;;;;31.30;22.40;;;;;;;8.53;88.87;92986.09;515681;28;861;-55
2023/04/20 01:08:26;;;;;;;30.67;22.23;;;;;;;8.53;88.55;92982.59;515799;28;856;-54
2023/04/20 01:08:46;;;;;;;29.55;22.02;;;;;;;8.54;88.76;92982.06;515774;28;860;-55
2023/04/20 01:09:02;;;;;;;28.15;21.65;;;;;;;8.57;88.77;92982.97;515724;28;950;-55
2023/04/20 01:09:17;;;;;;;26.52;20.95;;;;;;;8.58;88.57;92979.69;515748;28;1630;-54
2023/04/20 01:09:33;;;;;;;28.93;20.50;;;;;;;8.51;88.46;92968.66;515786;28;814;-53
2023/04/20 01:09:49;;;;;;;29.87;19.83;;;;;;;8.63;88.38;92975.28;515816;28;892;-54
2023/04/20 01:10:06;;;;;;;27.77;19.75;;;;;;;8.67;88.48;92972.91;515677;28;938;-53
2023/04/20 01:10:22;;;;;;;25.75;19.42;;;;;;;8.69;87.88;92971.06;515765;28;861;-55
2023/04/20 01:10:37;;;;;;;26.43;19.93;;;;;;;8.71;88.26;92976.75;515782;28;843;-55
2023/04/20 01:10:53;;;;;;;27.00;19.83;;;;;;;8.73;87.85;92971.44;515673;28;1045;-55
2023/04/20 01:11:09;;;;;;;23.90;18.77;;;;;;;8.76;87.57;92972.38;515808;28;881;-55
2023/04/20 01:11:24;;;;;;;22.70;18.77;;;;;;;8.78;87.51;92978.81;515763;28;1087;-55
2023/04/20 01:11:39;;;;;;;24.30;19.27;;;;;;;8.79;87.37;92972.00;515716;28;1115;-55
2023/04/20 01:11:55;;;;;;;26.10;19.73;;;;;;;8.79;87.01;92974.75;515648;28;850;-55
2023/04/20 01:12:11;;;;;;;26.02;19.63;;;;;;;8.80;86.98;92975.50;515648;28;1922;-54
2023/04/20 01:12:26;;;;;;;25.70;19.33;;;;;;;8.80;86.89;92978.25;515793;28;814;-55
2023/04/20 01:12:41;;;;;;;25.93;19.20;;;;;;;8.79;86.68;92974.03;515787;28;1066;-55
2023/04/20 01:12:57;;;;;;;25.27;19.27;;;;;;;8.80;86.77;92978.25;515811;28;813;-54
2023/04/20 01:13:12;;;;;;;24.58;19.33;;;;;;;8.80;86.89;92975.50;515689;28;962;-54
2023/04/20 01:13:28;;;;;;;24.87;19.23;;;;;;;8.80;86.73;92976.22;515794;28;865;-55
2023/04/20 01:13:43;;;;;;;24.83;19.57;;;;;;;8.77;86.84;92971.81;515815;28;854;-56
2023/04/20 01:13:59;;;;;;;25.17;20.08;;;;;;;8.55;86.63;92953.28;515634;28;1004;-55
2023/04/20 01:14:15;;;;;;;28.15;20.42;;;;;;;8.55;86.97;92977.28;516084;28;849;-55
2023/04/20 01:14:30;;;;;;;29.13;21.37;;;;;;;8.39;87.19;92973.75;516249;28;765;-54
2023/04/20 01:14:45;;;;;;;28.90;21.92;;;;;;;8.37;87.72;92971.56;516108;28;918;-54
2023/04/20 01:15:04;;;;;;;28.60;21.27;;;;;;;8.36;88.04;92969.34;516149;28;923;-56
2023/04/20 01:15:20;;;;;;;27.88;20.77;;;;;;;8.36;88.55;92972.09;516204;28;1012;-56
2023/04/20 01:15:35;;;;;;;28.00;20.43;;;;;;;8.36;88.62;92972.09;516173;28;916;-55